createdAt,value
2022-12-14T00:00:40.840Z,-2.15
2022-12-14T00:04:43.796Z,-2.12
2022-12-14T00:08:47.543Z,-2.10
2022-12-14T00:12:53.602Z,-2.09
2022-12-14T00:16:56.751Z,-2.09
2022-12-14T00:21:04.595Z,-2.12
2022-12-14T00:25:08.073Z,-2.12
2022-12-14T00:29:13.572Z,-2.15
2022-12-14T00:33:16.465Z,-2.14
2022-12-14T00:37:20.337Z,-2.13
2022-12-14T00:41:23.418Z,-2.11
2022-12-14T00:45:28.323Z,-2.11
2022-12-14T00:49:31.216Z,-2.24
2022-12-14T00:53:34.208Z,-2.28
2022-12-14T00:57:37.198Z,-2.32
2022-12-14T01:01:42.551Z,-2.32
2022-12-14T01:05:49.138Z,-2.34
2022-12-14T01:09:52.928Z,-2.29
2022-12-14T01:13:56.567Z,-2.31
2022-12-14T01:18:00.874Z,-2.32
2022-12-14T01:22:04.078Z,-2.33
2022-12-14T01:26:07.082Z,-2.39
2022-12-14T01:30:10.677Z,-2.41
2022-12-14T01:34:15.048Z,-2.38
2022-12-14T01:38:17.834Z,-2.39
2022-12-14T01:42:20.930Z,-2.41
2022-12-14T01:46:29.838Z,-2.41
2022-12-14T01:50:38.841Z,-2.46
2022-12-14T01:54:49.132Z,-2.55
2022-12-14T01:58:52.206Z,-2.59
2022-12-14T02:03:00.210Z,-2.59
2022-12-14T02:07:05.538Z,-2.59
2022-12-14T02:11:08.912Z,-2.57
2022-12-14T02:15:13.823Z,-2.55
2022-12-14T02:19:16.690Z,-2.55
2022-12-14T02:24:17.635Z,-2.56
2022-12-14T02:28:56.077Z,-2.58
2022-12-14T02:33:17.236Z,-2.60
2022-12-14T02:37:26.512Z,-2.62
2022-12-14T02:41:38.229Z,-2.65
2022-12-14T02:45:45.954Z,-2.66
2022-12-14T02:50:01.319Z,-2.69
2022-12-14T02:54:13.175Z,-2.78
2022-12-14T02:58:22.163Z,-2.83
2022-12-14T03:02:26.564Z,-2.83
2022-12-14T03:06:31.619Z,-2.90
2022-12-14T03:10:41.310Z,-2.93
2022-12-14T03:14:50.432Z,-2.98
2022-12-14T03:19:01.558Z,-3.04
2022-12-14T03:23:10.118Z,-3.07
2022-12-14T03:27:18.336Z,-3.10
2022-12-14T03:31:26.519Z,-3.11
2022-12-14T03:35:34.428Z,-3.14
2022-12-14T03:39:41.445Z,-3.17
2022-12-14T03:44:01.010Z,-3.21
2022-12-14T03:48:16.486Z,-3.27
2022-12-14T03:52:27.010Z,-3.32
2022-12-14T03:56:39.421Z,-3.37
2022-12-14T04:00:51.238Z,-3.38
2022-12-14T04:05:00.681Z,-3.40
2022-12-14T04:09:15.143Z,-3.45
2022-12-14T04:13:45.584Z,-3.47
2022-12-14T04:18:11.456Z,-3.51
2022-12-14T04:22:18.821Z,-3.54
2022-12-14T04:26:27.285Z,-3.57
2022-12-14T04:30:35.875Z,-3.59
2022-12-14T04:34:42.488Z,-3.62
2022-12-14T04:38:50.023Z,-3.71
2022-12-14T04:42:56.812Z,-3.70
2022-12-14T04:47:03.334Z,-3.71
2022-12-14T04:51:11.949Z,-3.75
2022-12-14T04:55:23.200Z,-3.77
2022-12-14T04:59:26.610Z,-3.78
2022-12-14T05:03:35.783Z,-3.79
2022-12-14T05:07:48.731Z,-3.81
2022-12-14T05:11:56.535Z,-3.84
2022-12-14T05:16:00.424Z,-3.85
2022-12-14T05:20:05.869Z,-3.88
2022-12-14T05:24:09.336Z,-3.92
2022-12-14T05:28:13.239Z,-3.95
2022-12-14T05:32:16.379Z,-4.00
2022-12-14T05:36:20.715Z,-4.03
2022-12-14T05:40:23.571Z,-4.04
2022-12-14T05:44:26.599Z,-4.06
2022-12-14T05:48:30.569Z,-4.08
2022-12-14T05:52:35.526Z,-4.10
2022-12-14T05:56:38.306Z,-4.13
2022-12-14T06:00:42.008Z,-4.16
2022-12-14T06:04:44.950Z,-4.19
2022-12-14T06:08:49.459Z,-4.21
2022-12-14T06:12:53.672Z,-4.23
2022-12-14T06:16:56.636Z,-4.22
2022-12-14T06:20:59.663Z,-4.24
2022-12-14T06:25:04.632Z,-4.25
2022-12-14T06:29:08.351Z,-4.26
2022-12-14T06:33:11.481Z,-4.28
2022-12-14T06:37:14.694Z,-4.29
2022-12-14T06:41:19.651Z,-4.29
2022-12-14T06:45:22.988Z,-4.33
2022-12-14T06:49:26.141Z,-4.36
2022-12-14T06:53:29.585Z,-4.40
2022-12-14T06:57:34.467Z,-4.44
2022-12-14T07:01:38.823Z,-4.49
2022-12-14T07:05:45.784Z,-4.52
2022-12-14T07:09:51.968Z,-4.55
2022-12-14T07:13:56.762Z,-4.58
2022-12-14T07:17:59.690Z,-4.59
2022-12-14T07:22:05.871Z,-4.62
2022-12-14T07:26:10.619Z,-4.64
2022-12-14T07:30:15.359Z,-4.68
2022-12-14T07:34:19.249Z,-4.70
2022-12-14T07:38:21.943Z,-4.73
2022-12-14T07:42:25.100Z,-4.75
2022-12-14T07:46:32.089Z,-4.78
2022-12-14T07:50:35.320Z,-4.83
2022-12-14T07:54:39.034Z,-4.87
2022-12-14T07:58:42.053Z,-4.91
2022-12-14T08:02:46.423Z,-4.99
2022-12-14T08:06:51.341Z,-5.05
2022-12-14T08:10:55.250Z,-5.10
2022-12-14T08:14:58.201Z,-5.18
2022-12-14T08:19:02.963Z,-5.20
2022-12-14T08:23:05.717Z,-5.30
2022-12-14T08:27:09.696Z,-5.34
2022-12-14T08:31:14.754Z,-5.37
2022-12-14T08:35:19.298Z,-5.37
2022-12-14T08:39:22.113Z,-5.37
2022-12-14T08:43:25.276Z,-5.35
2022-12-14T08:47:28.311Z,-5.39
2022-12-14T08:51:33.156Z,-5.47
2022-12-14T08:55:38.964Z,-5.53
2022-12-14T09:04:06.146Z,-5.59
2022-12-14T09:08:10.566Z,-5.61
2022-12-14T09:12:13.334Z,-5.62
2022-12-14T09:16:19.321Z,-5.54
2022-12-14T09:20:23.026Z,-5.47
2022-12-14T09:24:28.359Z,-5.40
2022-12-14T09:28:33.190Z,-5.43
2022-12-14T09:32:35.991Z,-5.46
2022-12-14T09:36:39.384Z,-5.39
2022-12-14T09:40:49.289Z,-5.33
2022-12-14T09:45:01.889Z,-5.27
2022-12-14T09:49:06.127Z,-5.18
2022-12-14T09:53:14.247Z,-5.10
2022-12-14T09:57:26.498Z,-5.02
2022-12-14T10:02:29.127Z,-4.90
2022-12-14T10:06:35.693Z,-4.83
2022-12-14T10:10:45.565Z,-4.75
2022-12-14T10:15:01.959Z,-4.67
2022-12-14T10:19:23.473Z,-4.60
2022-12-14T10:23:28.111Z,-4.52
2022-12-14T10:28:01.226Z,-4.45
2022-12-14T10:32:07.600Z,-4.35
2022-12-14T10:36:21.035Z,-4.29
2022-12-14T10:40:33.619Z,-4.23
2022-12-14T10:44:50.278Z,-4.17
2022-12-14T10:49:10.663Z,-4.08
2022-12-14T10:53:18.621Z,-3.97
2022-12-14T10:57:23.168Z,-3.89
2022-12-14T11:01:28.435Z,-3.85
2022-12-14T11:05:39.654Z,-3.76
2022-12-14T11:09:43.588Z,-3.66
2022-12-14T11:13:50.864Z,-3.60
2022-12-14T11:18:03.287Z,-3.49
2022-12-14T11:22:15.955Z,-3.43
2022-12-14T11:26:27.682Z,-3.36
2022-12-14T11:30:30.934Z,-3.29
2022-12-14T11:34:38.167Z,-3.19
2022-12-14T11:38:42.795Z,-3.10
2022-12-14T11:42:50.001Z,-3.04
2022-12-14T11:46:56.428Z,-2.95
2022-12-14T11:51:11.024Z,-2.90
2022-12-14T11:55:24.678Z,-2.86
2022-12-14T11:59:39.608Z,-2.80
2022-12-14T12:03:46.073Z,-2.73
2022-12-14T12:07:55.359Z,-2.73
2022-12-14T12:11:59.943Z,-2.68
2022-12-14T12:16:08.103Z,-2.61
2022-12-14T12:20:27.038Z,-2.63
2022-12-14T12:25:01.091Z,-2.55
2022-12-14T12:29:14.604Z,-2.49
2022-12-14T12:33:36.015Z,-2.43
2022-12-14T12:37:44.970Z,-2.38
2022-12-14T12:41:58.179Z,-2.34
2022-12-14T12:46:13.489Z,-2.30
2022-12-14T12:50:22.526Z,-2.25
2022-12-14T12:54:30.665Z,-2.18
2022-12-14T12:58:35.152Z,-2.13
2022-12-14T13:02:47.378Z,-2.09
2022-12-14T13:06:58.260Z,-2.08
2022-12-14T13:11:37.859Z,-2.05
2022-12-14T13:15:39.439Z,-2.02
2022-12-14T13:20:00.616Z,-2.00
2022-12-14T13:24:19.809Z,-1.95
2022-12-14T13:28:49.697Z,-1.95
2022-12-14T13:33:28.740Z,-1.96
2022-12-14T13:37:50.117Z,-1.94
2022-12-14T13:42:02.606Z,-1.89
2022-12-14T13:46:12.697Z,-1.83
2022-12-14T13:50:35.805Z,-1.79
2022-12-14T13:54:41.112Z,-1.73
2022-12-14T13:58:47.487Z,-1.68
2022-12-14T14:02:53.661Z,-1.65
2022-12-14T14:07:18.315Z,-1.62
2022-12-14T14:11:56.004Z,-1.60
2022-12-14T14:16:28.471Z,-1.58
2022-12-14T14:20:56.976Z,-1.57
2022-12-14T14:25:09.532Z,-1.59
2022-12-14T14:29:32.798Z,-1.61
2022-12-14T14:33:48.956Z,-1.62
2022-12-14T14:37:59.166Z,-1.63
2022-12-14T14:42:06.159Z,-1.68
2022-12-14T14:46:14.480Z,-1.73
2022-12-14T14:50:24.663Z,-1.77
2022-12-14T14:55:10.725Z,-1.82
2022-12-14T14:59:38.494Z,-1.91
2022-12-14T15:03:55.204Z,-2.00
2022-12-14T15:08:03.050Z,-2.06
2022-12-14T15:12:34.062Z,-2.11
2022-12-14T15:16:49.703Z,-2.17
2022-12-14T15:21:01.691Z,-2.24
2022-12-14T15:25:11.259Z,-2.32
2022-12-14T15:29:28.784Z,-2.41
2022-12-14T15:33:35.358Z,-2.48
2022-12-14T15:37:46.207Z,-2.52
2022-12-14T15:41:49.278Z,-2.55
2022-12-14T15:46:03.066Z,-2.62
2022-12-14T15:50:19.301Z,-2.69
2022-12-14T15:54:27.120Z,-2.72
2022-12-14T15:58:34.494Z,-2.79
2022-12-14T16:02:56.642Z,-2.86
2022-12-14T16:07:18.206Z,-2.92
2022-12-14T16:11:37.429Z,-2.99
2022-12-14T16:15:42.843Z,-3.06
2022-12-14T16:19:59.536Z,-3.13
2022-12-14T16:24:22.088Z,-3.24
2022-12-14T16:28:29.755Z,-3.35
2022-12-14T16:32:33.274Z,-3.39
2022-12-14T16:36:37.938Z,-3.45
2022-12-14T16:40:43.578Z,-3.51
2022-12-14T16:44:48.797Z,-3.59
2022-12-14T16:49:21.065Z,-3.66
2022-12-14T16:53:30.528Z,-3.74
2022-12-14T16:57:35.892Z,-3.83
2022-12-14T17:01:46.856Z,-3.92
2022-12-14T17:05:56.418Z,-3.99
2022-12-14T17:09:59.576Z,-4.08
2022-12-14T17:14:02.461Z,-4.14
2022-12-14T17:18:08.714Z,-4.19
2022-12-14T17:22:19.171Z,-4.23
2022-12-14T17:26:25.220Z,-4.27
2022-12-14T17:30:28.866Z,-4.30
2022-12-14T17:34:33.449Z,-4.37
2022-12-14T17:38:36.431Z,-4.42
2022-12-14T17:42:41.890Z,-4.45
2022-12-14T17:46:56.864Z,-4.53
2022-12-14T17:51:07.104Z,-4.61
2022-12-14T17:55:18.226Z,-4.75
2022-12-14T17:59:21.208Z,-4.82
2022-12-14T18:03:24.867Z,-4.93
2022-12-14T18:07:30.049Z,-5.00
2022-12-14T18:11:33.272Z,-5.06
2022-12-14T18:15:50.524Z,-5.11
2022-12-14T18:19:59.267Z,-5.13
2022-12-14T18:24:09.337Z,-5.22
2022-12-14T18:28:14.440Z,-5.33
2022-12-14T18:32:17.391Z,-5.38
2022-12-14T18:36:31.762Z,-5.42
2022-12-14T18:40:44.462Z,-5.45
2022-12-14T18:44:56.396Z,-5.46
2022-12-14T18:48:59.463Z,-5.45
2022-12-14T18:53:02.800Z,-5.44
2022-12-14T18:57:07.471Z,-5.52
2022-12-14T19:01:15.990Z,-5.55
2022-12-14T19:05:25.878Z,-5.63
2022-12-14T19:09:29.562Z,-5.75
2022-12-14T19:13:34.285Z,-5.77
2022-12-14T19:17:37.054Z,-5.85
2022-12-14T19:21:40.228Z,-5.91
2022-12-14T19:25:44.371Z,-5.89
2022-12-14T19:29:48.620Z,-5.88
2022-12-14T19:33:51.508Z,-5.85
2022-12-14T19:38:04.745Z,-5.86
2022-12-14T19:42:07.980Z,-5.90
2022-12-14T19:46:15.422Z,-5.91
2022-12-14T19:50:18.645Z,-5.95
2022-12-14T19:54:21.784Z,-6.05
2022-12-14T19:58:25.315Z,-6.06
2022-12-14T20:02:30.110Z,-6.11
2022-12-14T20:06:34.590Z,-6.09
2022-12-14T20:10:37.821Z,-6.11
2022-12-14T20:14:42.720Z,-6.12
2022-12-14T20:18:48.545Z,-6.16
2022-12-14T20:22:52.004Z,-6.28
2022-12-14T20:26:55.031Z,-6.32
2022-12-14T20:31:00.555Z,-6.35
2022-12-14T20:35:06.335Z,-6.37
2022-12-14T20:39:09.917Z,-6.36
2022-12-14T20:43:13.259Z,-6.37
2022-12-14T20:47:16.543Z,-6.44
2022-12-14T20:51:21.695Z,-6.50
2022-12-14T20:55:25.493Z,-6.50
2022-12-14T20:59:28.505Z,-6.44
2022-12-14T21:03:31.830Z,-6.42
2022-12-14T21:07:40.853Z,-6.52
2022-12-14T21:12:10.107Z,-6.46
2022-12-14T21:16:13.140Z,-6.47
2022-12-14T21:20:16.182Z,-6.50
2022-12-14T21:24:52.659Z,-6.45
2022-12-14T21:28:45.421Z,-6.48
2022-12-14T21:32:59.560Z,-6.46
2022-12-14T21:37:02.427Z,-6.45
2022-12-14T21:41:31.767Z,-6.41
2022-12-14T21:45:34.864Z,-6.35
2022-12-14T21:49:38.941Z,-6.32
2022-12-14T21:53:58.388Z,-6.27
2022-12-14T21:58:19.519Z,-6.28
2022-12-14T22:02:24.805Z,-6.34
2022-12-14T22:06:28.186Z,-6.35
2022-12-14T22:10:31.261Z,-6.37
2022-12-14T22:14:36.052Z,-6.35
2022-12-14T22:18:39.483Z,-6.33
2022-12-14T22:22:42.381Z,-6.30
2022-12-14T22:26:45.781Z,-6.34
2022-12-14T22:30:50.028Z,-6.28
2022-12-14T22:34:52.819Z,-6.24
2022-12-14T22:38:57.270Z,-6.20
2022-12-14T22:43:00.467Z,-6.15
2022-12-14T22:47:05.105Z,-6.13
2022-12-14T22:51:10.260Z,-6.10
2022-12-14T22:55:14.408Z,-6.09
2022-12-14T22:59:20.994Z,-6.01
2022-12-14T23:03:26.676Z,-5.97
2022-12-14T23:07:29.993Z,-5.91
2022-12-14T23:11:50.780Z,-5.85
2022-12-14T23:16:12.120Z,-5.80
2022-12-14T23:20:33.886Z,-5.75
2022-12-14T23:24:54.368Z,-5.72
2022-12-14T23:29:15.109Z,-5.71
2022-12-14T23:33:35.507Z,-5.66
2022-12-14T23:37:57.474Z,-5.64
2022-12-14T23:42:17.868Z,-5.64
2022-12-14T23:46:38.355Z,-5.63
2022-12-14T23:50:58.660Z,-5.63
2022-12-14T23:55:20.513Z,-5.65
2022-12-14T23:59:40.927Z,-5.64
